createdAt,value
2022-10-12T06:46:14.285Z,16.07
2022-10-12T06:51:08.391Z,12.47
2022-10-12T06:56:06.474Z,15.07
2022-10-12T07:01:00.272Z,17.50
2022-10-12T07:05:55.617Z,14.03
2022-10-12T07:10:49.672Z,14.57
2022-10-12T07:15:43.484Z,14.43
2022-10-12T07:20:40.312Z,13.53
2022-10-12T07:25:35.650Z,14.00
2022-10-12T07:30:29.390Z,17.90
2022-10-12T07:35:23.438Z,18.37
2022-10-12T07:40:17.507Z,17.33
2022-10-12T07:45:14.194Z,12.67
2022-10-12T07:50:09.961Z,18.90
2022-10-12T07:55:03.755Z,20.83
2022-10-12T07:59:57.890Z,14.67
2022-10-12T08:04:53.432Z,15.57
2022-10-12T08:09:48.994Z,10.73
2022-10-12T08:14:43.026Z,17.58
2022-10-12T08:19:37.763Z,12.45
2022-10-12T08:24:33.099Z,16.75
2022-10-12T08:29:26.837Z,14.07
2022-10-12T08:34:20.673Z,15.65
2022-10-12T08:39:14.370Z,11.73
2022-10-12T08:44:34.237Z,10.90
2022-10-12T08:49:29.447Z,15.13
2022-10-12T08:54:26.255Z,15.88
2022-10-12T08:59:21.110Z,12.48
2022-10-12T09:04:35.167Z,10.05
2022-10-12T09:09:43.281Z,12.68
2022-10-12T09:14:40.360Z,15.85
2022-10-12T09:19:39.971Z,15.05
2022-10-12T09:24:37.475Z,17.08
2022-10-12T09:29:32.665Z,13.50
2022-10-12T09:34:26.714Z,13.75
2022-10-12T09:39:29.082Z,13.05
2022-10-12T09:44:29.331Z,15.73
2022-10-12T09:49:23.397Z,12.98
2022-10-12T09:54:20.334Z,11.95
2022-10-12T09:59:30.270Z,12.73
2022-10-12T10:04:25.742Z,15.50
2022-10-12T10:09:31.037Z,15.02
2022-10-12T10:14:26.608Z,11.98
2022-10-12T10:19:25.254Z,11.13
2022-10-12T10:24:28.920Z,12.73
2022-10-12T10:29:45.643Z,15.98
2022-10-12T10:34:39.726Z,11.65
2022-10-12T10:39:47.102Z,15.40
2022-10-12T10:44:51.078Z,13.43
2022-10-12T10:49:49.587Z,12.80
2022-10-12T10:54:45.266Z,9.23
2022-10-12T10:59:46.433Z,11.75
2022-10-12T11:04:43.711Z,11.93
2022-10-12T11:09:44.134Z,13.07
2022-10-12T11:14:43.307Z,14.65
2022-10-12T11:19:43.729Z,14.45
2022-10-12T11:24:44.909Z,12.35
2022-10-12T11:29:39.303Z,12.57
2022-10-12T11:34:42.282Z,13.15
2022-10-12T11:39:41.476Z,13.43
2022-10-12T11:44:43.590Z,14.40
2022-10-12T11:49:50.148Z,14.15
2022-10-12T11:54:48.935Z,8.30
2022-10-12T11:59:46.014Z,11.43
2022-10-12T12:04:44.610Z,9.90
2022-10-12T12:09:47.822Z,12.50
2022-10-12T12:15:02.646Z,10.90
2022-10-12T12:19:58.753Z,10.13
2022-10-12T12:25:12.057Z,10.88
2022-10-12T12:30:22.237Z,9.95
2022-10-12T12:35:24.511Z,12.57
2022-10-12T12:40:25.171Z,12.52
2022-10-12T12:45:54.401Z,13.20
2022-10-12T12:50:50.138Z,14.40
2022-10-12T12:56:04.647Z,11.32
2022-10-12T13:01:19.025Z,8.95
2022-10-12T13:06:55.417Z,15.25
2022-10-12T13:12:03.833Z,8.85
2022-10-12T13:22:33.718Z,9.82
2022-10-12T13:27:35.783Z,10.70
2022-10-12T13:32:40.450Z,8.48
2022-10-12T13:37:36.930Z,12.73
2022-10-12T13:42:36.269Z,11.88
2022-10-12T13:47:32.488Z,8.73
2022-10-12T13:52:31.889Z,8.60
2022-10-12T13:57:34.046Z,12.20
2022-10-12T14:02:31.983Z,8.63
2022-10-12T14:07:29.750Z,11.27
2022-10-12T14:12:25.693Z,9.73
2022-10-12T14:17:22.153Z,8.52
2022-10-12T14:22:22.346Z,13.75
2022-10-12T14:27:25.749Z,7.45
2022-10-12T14:32:44.331Z,11.98
2022-10-12T14:37:39.201Z,8.90
2022-10-12T14:42:35.707Z,10.35
2022-10-12T14:47:32.581Z,9.50
2022-10-12T14:52:32.306Z,10.63
2022-10-12T14:57:27.393Z,9.90
2022-10-12T15:02:23.561Z,9.98
2022-10-12T15:07:21.044Z,11.70
2022-10-12T15:12:18.824Z,10.90
2022-10-12T15:17:14.179Z,12.25
2022-10-12T15:22:08.471Z,11.00
2022-10-12T15:27:02.346Z,14.05
2022-10-12T15:31:58.541Z,10.60
2022-10-12T15:36:52.205Z,13.00
2022-10-12T15:41:46.046Z,16.10
2022-10-12T15:46:40.176Z,14.75
2022-10-12T15:51:40.728Z,13.65
2022-10-12T15:56:34.595Z,14.05
2022-10-12T16:01:28.636Z,13.77
2022-10-12T16:06:22.580Z,12.32
2022-10-12T16:11:19.061Z,10.60
2022-10-12T16:16:12.827Z,13.88
2022-10-12T16:21:06.741Z,15.02
2022-10-12T16:26:01.042Z,12.23
2022-10-12T16:30:56.500Z,20.25
2022-10-12T16:35:50.214Z,15.05
2022-10-12T16:40:44.091Z,14.88
2022-10-12T16:45:37.651Z,14.77
2022-10-12T16:50:32.837Z,14.25
2022-10-12T16:55:26.429Z,16.35
2022-10-12T17:00:21.859Z,17.20
2022-10-12T17:05:15.747Z,23.35
2022-10-12T17:10:11.875Z,17.10
2022-10-12T17:15:06.420Z,23.67
2022-10-12T17:20:00.152Z,20.27
2022-10-12T17:24:53.754Z,15.65
2022-10-12T17:29:49.138Z,20.55
2022-10-12T17:34:44.759Z,16.88
2022-10-12T17:39:43.661Z,16.52
2022-10-12T17:44:37.216Z,15.45
2022-10-12T17:49:32.734Z,17.83
2022-10-12T17:54:27.397Z,13.88
2022-10-12T17:59:22.046Z,34.15
2022-10-12T18:04:15.742Z,35.85
